Aydin, Turkey

2:53 PM EEST on August 30, 2015 (GMT +0300)
Bodrum | | Change Station
CLOSE
Current Station
Airport
Location: Milas,
Elevation: 20 ft
Nearby Weather Stations

Elev 20 ft 37.25 °N, 27.67 °E | Updated 33 minutes ago

Clear
Clear
97 °F
Feels Like 97 °F
N
15
Wind Variable Wind from North

Today
High -- | Low -- °F
--% Chance of Precip.
Yesterday
High -- | Low -- °F
Precip. -- in
6:36 AM 7:41 PM
Full, 99% visible
Pressure 29.89 in
Visibility -9999.0 miles
Clouds
Dew Point 45 °F
Humidity 17%
Rainfall 0.00 in
Snow Depth Not available.
UV Not available.
Pollen Not available.
Air Quality Not available.
Flu Activity Not available.
METAR LTFE 301120Z 01013KT CAVOK 36/07 Q1012 NOSIG
Pressure 29.89 in
Visibility -9999.0 miles
Clouds
Dew Point 45 °F
Humidity 17%
Rainfall 0.00 in
Snow Depth Not available.
UV Not available.
Pollen Not available.
Air Quality Not available.
Flu Activity Not available.
METAR LTFE 301120Z 01013KT CAVOK 36/07 Q1012 NOSIG

10-Day Weather Forecast

×

Almanac

Astronomy

Aug. 30, 2015 Rise Set
Actual Time
Civil Twilight
Nautical Twilight
Astronomical Twilight
Moon
Length of Visible Light
Length of Day
Tomorrow will be .
, % of the Moon is Illuminated

Today's Extremes

Country Highs Country Lows

Community

WunderPhotos

Upload Photos

1,850,930 photos uploaded!

WunderBlogs® & News

Nearby

Air Quality

  Air Quality AQ Index Pollutant
Not available.

Snow Depth

Station Depth Elevation

Earthquake Activity

City Distance Mag. Time & Date
Minimum magnitude displayed is 2.5.

Coastal Water Temperatures

Place Temperature

Stations

Nearby Weather Stations

Station Location Temp. Windchill Dew Point Humidity Wind Precip. Elev Updated Type